Time;durP1;ratioP1;P1;durP2;ratioP2;P2;SDS_P1;SDS_P2;PMS_P1;PMS_P2;Temp;Humidity;BMP_temperature;BMP_pressure;BME280_temperature;BME280_humidity;BME280_pressure;Samples;Min_cycle;Max_cycle;Signal;HPM_P1;HPM_P2
2022/12/01 00:02:08;;;;;;;85.75;38.72;;;;;;;1.03;100.00;100903.34;10375575;28;20106;-72
2022/12/01 00:07:09;;;;;;;86.28;37.85;;;;;;;1.01;100.00;100911.91;10375126;28;20041;-72
2022/12/01 00:12:11;;;;;;;85.88;37.47;;;;;;;0.97;100.00;100904.06;10374317;28;20434;-72
2022/12/01 00:17:13;;;;;;;83.97;38.17;;;;;;;0.96;100.00;100910.94;10373809;28;20104;-74
2022/12/01 00:22:14;;;;;;;81.32;35.10;;;;;;;0.69;100.00;100905.19;10376301;28;20046;-74
2022/12/01 00:27:16;;;;;;;74.10;34.60;;;;;;;0.71;100.00;100906.13;10374314;28;20042;-74
2022/12/01 00:32:18;;;;;;;77.15;33.58;;;;;;;0.70;100.00;100906.94;10374422;28;20046;-72
2022/12/01 00:37:19;;;;;;;74.07;34.83;;;;;;;0.70;100.00;100904.34;10379090;28;20516;-72
2022/12/01 00:42:21;;;;;;;84.50;37.17;;;;;;;0.86;99.35;100898.66;10381049;28;20049;-71
2022/12/01 00:47:23;;;;;;;78.72;34.45;;;;;;;0.79;100.00;100898.50;10382589;28;20458;-70
2022/12/01 00:52:25;;;;;;;73.38;33.70;;;;;;;0.65;100.00;100899.06;10380729;28;20046;-72
2022/12/01 00:57:26;;;;;;;85.95;36.15;;;;;;;0.63;100.00;100908.53;10379541;28;20037;-71
2022/12/01 01:02:28;;;;;;;81.82;35.03;;;;;;;0.66;100.00;100910.28;10380599;28;20053;-72
2022/12/01 01:07:30;;;;;;;79.38;35.60;;;;;;;0.56;100.00;100909.22;10380512;28;20069;-71
2022/12/01 01:12:31;;;;;;;72.20;33.75;;;;;;;0.53;100.00;100913.44;10379622;28;20470;-71
2022/12/01 01:17:33;;;;;;;80.97;35.90;;;;;;;0.35;100.00;100906.13;10379799;28;20050;-71
2022/12/01 01:22:35;;;;;;;81.30;36.90;;;;;;;0.28;100.00;100912.00;10379348;28;20046;-71
2022/12/01 01:27:36;;;;;;;75.25;33.58;;;;;;;0.43;100.00;100914.94;10392797;23;20030;-72
2022/12/01 01:32:39;;;;;;;76.25;33.13;;;;;;;0.45;100.00;100915.88;10382661;28;20034;-73
2022/12/01 01:37:40;;;;;;;79.55;36.13;;;;;;;0.43;100.00;100917.53;10381604;28;20044;-73
2022/12/01 01:42:42;;;;;;;77.55;32.67;;;;;;;0.54;100.00;100920.38;10380524;28;20052;-73
2022/12/01 01:47:47;;;;;;;74.35;33.15;;;;;;;0.41;100.00;100926.97;10378153;28;20096;-73
2022/12/01 01:52:56;;;;;;;75.90;33.38;;;;;;;0.49;100.00;100922.88;10381310;28;20048;-73
2022/12/01 01:57:59;;;;;;;75.82;34.03;;;;;;;0.32;100.00;100909.53;10380299;28;20564;-74
2022/12/01 02:03:02;;;;;;;79.53;34.92;;;;;;;0.30;100.00;100920.66;10378813;28;20050;-73
2022/12/01 02:08:04;;;;;;;86.32;36.88;;;;;;;-0.02;100.00;100923.34;10379361;28;20458;-74
2022/12/01 02:13:32;;;;;;;81.47;34.45;;;;;;;-0.13;100.00;100917.91;10377529;28;20060;-73
2022/12/01 02:19:06;;;;;;;85.00;35.17;;;;;;;0.03;100.00;100921.72;10377675;28;20046;-73
2022/12/01 02:24:46;;;;;;;87.68;37.03;;;;;;;0.00;100.00;100911.34;10378523;28;20125;-73
2022/12/01 02:30:08;;;;;;;82.47;34.92;;;;;;;0.15;100.00;100916.88;10372208;28;20053;-73
2022/12/01 02:35:32;;;;;;;96.95;36.28;;;;;;;0.04;100.00;100915.72;10380414;28;20045;-73
2022/12/01 02:40:51;;;;;;;89.75;35.67;;;;;;;0.15;100.00;100918.59;10379816;28;20038;-73
2022/12/01 02:45:59;;;;;;;85.13;33.97;;;;;;;0.10;100.00;100917.59;10378564;28;20050;-73
2022/12/01 02:51:19;;;;;;;81.28;33.30;;;;;;;0.00;100.00;100934.59;10378785;28;20044;-73
2022/12/01 02:56:22;;;;;;;82.10;35.15;;;;;;;-0.04;100.00;100928.47;10380371;28;20088;-72
2022/12/01 03:01:49;;;;;;;87.65;34.63;;;;;;;-0.03;100.00;100927.63;10379800;28;20065;-72
2022/12/01 03:07:34;;;;;;;87.82;34.85;;;;;;;-0.17;100.00;100922.97;10380582;28;20133;-72
2022/12/01 03:13:07;;;;;;;85.32;35.60;;;;;;;0.11;100.00;100922.81;10380651;28;20077;-73
2022/12/01 03:18:17;;;;;;;89.28;34.72;;;;;;;0.34;100.00;100912.13;10377968;28;20041;-72
2022/12/01 03:23:23;;;;;;;86.40;32.83;;;;;;;0.24;100.00;100909.34;10378674;28;20038;-73
2022/12/01 03:28:31;;;;;;;88.77;35.07;;;;;;;-0.01;100.00;100923.34;10376343;28;20466;-73
2022/12/01 03:33:42;;;;;;;86.97;35.00;;;;;;;0.38;100.00;100927.75;10377951;28;20128;-74
2022/12/01 03:38:50;;;;;;;89.57;33.22;;;;;;;0.38;100.00;100917.41;10379267;28;20037;-74
2022/12/01 03:44:02;;;;;;;99.55;35.65;;;;;;;0.02;100.00;100921.72;10378919;28;20439;-72
2022/12/01 03:49:04;;;;;;;88.13;34.90;;;;;;;0.20;100.00;100923.03;10377829;28;20442;-73
2022/12/01 03:54:28;;;;;;;86.28;32.13;;;;;;;0.35;100.00;100929.41;10378787;28;20053;-72
2022/12/01 03:59:34;;;;;;;81.30;32.50;;;;;;;0.20;100.00;100928.19;10371325;28;20062;-72
2022/12/01 04:04:36;;;;;;;96.15;33.72;;;;;;;0.24;100.00;100930.03;10378974;28;20046;-73
2022/12/01 04:09:40;;;;;;;101.25;35.38;;;;;;;0.12;100.00;100931.44;10377280;28;20495;-73
2022/12/01 04:14:42;;;;;;;95.90;34.50;;;;;;;0.38;100.00;100932.06;10383979;28;20480;-74
2022/12/01 04:19:43;;;;;;;100.10;35.08;;;;;;;0.42;100.00;100934.75;10382955;28;20121;-74
2022/12/01 04:24:45;;;;;;;101.35;36.08;;;;;;;0.33;100.00;100928.50;10383384;28;20056;-74
2022/12/01 04:29:47;;;;;;;100.97;35.92;;;;;;;0.15;100.00;100929.81;10382519;28;20042;-74
2022/12/01 04:34:49;;;;;;;101.18;34.58;;;;;;;0.19;100.00;100933.34;10383488;28;20049;-74
2022/12/01 04:39:51;;;;;;;98.55;33.72;;;;;;;0.41;100.00;100938.19;10384157;28;20064;-74
2022/12/01 04:44:53;;;;;;;99.72;34.08;;;;;;;0.55;100.00;100940.22;10382636;28;20451;-73
2022/12/01 04:49:54;;;;;;;119.47;39.20;;;;;;;0.43;100.00;100939.09;10381237;28;20480;-72
2022/12/01 04:54:56;;;;;;;125.93;39.53;;;;;;;0.35;100.00;100940.63;10382764;28;20041;-72
2022/12/01 04:59:58;;;;;;;131.50;41.03;;;;;;;0.06;100.00;100936.47;10381796;28;20042;-73
2022/12/01 05:05:00;;;;;;;129.02;40.28;;;;;;;0.06;100.00;100933.88;10380160;28;20041;-73
2022/12/01 05:10:02;;;;;;;138.15;43.53;;;;;;;0.02;100.00;100940.66;10380510;28;20054;-74
2022/12/01 05:15:04;;;;;;;128.63;40.80;;;;;;;0.16;100.00;100933.25;10381067;28;20050;-73
2022/12/01 05:25:27;;;;;;;125.30;39.47;;;;;;;0.07;100.00;100944.25;10380433;28;20069;-74
2022/12/01 05:30:29;;;;;;;120.35;38.50;;;;;;;0.13;100.00;100943.50;10381344;28;20396;-73
2022/12/01 05:35:34;;;;;;;117.97;39.33;;;;;;;-0.04;100.00;100951.75;10381410;28;20384;-72
2022/12/01 05:40:36;;;;;;;122.53;38.17;;;;;;;0.11;100.00;100946.06;10381184;28;20046;-72
2022/12/01 05:45:38;;;;;;;114.00;37.42;;;;;;;0.09;100.00;100950.34;10381357;28;20038;-74
2022/12/01 05:50:39;;;;;;;120.78;38.83;;;;;;;0.02;100.00;100953.59;10379323;28;20044;-73
2022/12/01 05:55:41;;;;;;;107.55;37.53;;;;;;;0.29;100.00;100956.00;10378358;28;20049;-73
2022/12/01 06:00:43;;;;;;;116.35;38.13;;;;;;;0.15;100.00;100962.53;10379540;28;20088;-74
2022/12/01 06:05:46;;;;;;;133.10;46.00;;;;;;;0.23;100.00;100966.19;10381135;28;20417;-74
2022/12/01 06:10:48;;;;;;;118.20;41.08;;;;;;;0.27;100.00;100964.53;10379575;28;20467;-73
2022/12/01 06:16:01;;;;;;;129.52;42.53;;;;;;;0.22;100.00;100964.44;10380535;28;20060;-73
2022/12/01 06:21:05;;;;;;;114.43;40.25;;;;;;;0.37;100.00;100959.66;10379131;28;20392;-74
2022/12/01 06:26:07;;;;;;;127.78;43.00;;;;;;;0.25;100.00;100969.69;10380814;28;20041;-74
2022/12/01 06:31:08;;;;;;;123.30;41.13;;;;;;;0.09;100.00;100973.59;10380271;28;20038;-74
2022/12/01 06:36:10;;;;;;;112.68;40.78;;;;;;;0.38;100.00;100970.88;10381717;28;20046;-81
2022/12/01 06:41:12;;;;;;;117.90;39.67;;;;;;;0.37;100.00;100979.47;10378815;28;20050;-74
2022/12/01 06:46:14;;;;;;;110.97;35.67;;;;;;;0.34;100.00;100980.25;10378914;28;20038;-73
2022/12/01 06:51:16;;;;;;;101.78;32.65;;;;;;;0.35;100.00;100989.75;10378795;28;20474;-73
2022/12/01 06:56:42;;;;;;;112.97;36.40;;;;;;;0.23;100.00;100992.94;10378472;28;20083;-74
2022/12/01 07:01:44;;;;;;;112.28;38.92;;;;;;;0.35;100.00;100991.47;10377761;28;20048;-73
2022/12/01 07:06:46;;;;;;;113.05;38.08;;;;;;;0.29;100.00;100993.91;10378651;28;20042;-74
2022/12/01 07:11:48;;;;;;;116.60;36.78;;;;;;;0.32;100.00;101001.75;10377496;28;20049;-72
2022/12/01 07:16:50;;;;;;;120.13;40.58;;;;;;;0.28;100.00;101003.38;10377794;28;20041;-74
2022/12/01 07:21:52;;;;;;;128.45;41.33;;;;;;;0.25;100.00;101000.72;10377873;28;20113;-74
2022/12/01 07:26:54;;;;;;;127.00;42.03;;;;;;;0.40;100.00;101007.97;10376951;28;20042;-73
2022/12/01 07:31:56;;;;;;;138.77;42.92;;;;;;;0.17;100.00;101007.38;10393033;23;20461;-74
2022/12/01 07:36:57;;;;;;;132.85;42.65;;;;;;;0.34;100.00;101003.53;10377900;28;20034;-74
2022/12/01 07:41:59;;;;;;;133.85;41.40;;;;;;;0.48;100.00;101012.50;10378800;28;20050;-73
2022/12/01 07:47:01;;;;;;;120.03;40.55;;;;;;;0.40;100.00;101015.72;10383992;28;20065;-73
2022/12/01 07:52:03;;;;;;;136.52;43.90;;;;;;;0.23;100.00;101011.03;10402127;28;20033;-73
2022/12/01 07:57:06;;;;;;;138.60;42.80;;;;;;;0.08;100.00;101009.75;10416452;28;20104;-75
2022/12/01 08:02:09;;;;;;;149.38;45.55;;;;;;;0.15;100.00;101016.84;10386739;28;20084;-74
2022/12/01 08:07:11;;;;;;;147.90;46.05;;;;;;;0.13;100.00;101016.78;10383733;28;20042;-74
2022/12/01 08:12:13;;;;;;;142.52;46.65;;;;;;;0.29;100.00;101015.47;10384097;28;20399;-73
2022/12/01 08:17:15;;;;;;;138.68;46.38;;;;;;;0.28;100.00;101015.44;10383131;28;20057;-72
2022/12/01 08:22:16;;;;;;;134.57;46.75;;;;;;;0.23;100.00;101016.19;10384337;28;20133;-71
2022/12/01 08:27:18;;;;;;;135.35;48.17;;;;;;;0.36;100.00;101022.56;10381496;28;20088;-70
2022/12/01 08:32:20;;;;;;;140.15;50.35;;;;;;;0.31;100.00;101016.41;10380815;28;20474;-71
2022/12/01 08:37:21;;;;;;;134.88;49.20;;;;;;;0.53;100.00;101025.53;10382040;28;20045;-70
2022/12/01 08:42:23;;;;;;;130.32;48.05;;;;;;;0.45;100.00;101024.50;10380525;28;20057;-70
2022/12/01 08:47:27;;;;;;;132.35;47.67;;;;;;;0.54;100.00;101019.56;10365133;28;20407;-71
2022/12/01 08:52:33;;;;;;;128.68;47.80;;;;;;;0.47;100.00;101023.69;10382138;28;20069;-70
2022/12/01 08:57:35;;;;;;;137.48;48.55;;;;;;;0.45;100.00;101019.34;10379592;28;20052;-71
2022/12/01 09:02:37;;;;;;;126.40;47.70;;;;;;;0.77;99.25;101027.00;10381288;28;20492;-70
2022/12/01 09:07:40;;;;;;;139.85;51.20;;;;;;;0.62;100.00;101035.25;10379772;28;20615;-70
2022/12/01 09:12:41;;;;;;;131.60;49.53;;;;;;;0.44;100.00;101035.66;10386673;28;20054;-70
2022/12/01 09:17:43;;;;;;;119.78;46.03;;;;;;;0.73;100.00;101032.09;10379540;28;20042;-71
2022/12/01 09:22:45;;;;;;;125.63;46.60;;;;;;;0.65;98.61;101037.91;10412487;28;20045;-70
2022/12/01 09:27:46;;;;;;;137.90;49.75;;;;;;;0.85;97.85;101031.53;10417236;28;20046;-71
2022/12/01 09:32:48;;;;;;;140.18;51.22;;;;;;;0.68;98.94;101033.69;10380828;28;20578;-71
2022/12/01 09:37:50;;;;;;;132.07;47.70;;;;;;;0.49;100.00;101027.22;10378665;28;20120;-70
2022/12/01 09:42:52;;;;;;;134.35;49.03;;;;;;;0.71;98.82;101019.97;10378470;28;20541;-71
2022/12/01 09:48:00;;;;;;;;;;;;;;;0.56;100.00;101017.88;10401272;28;20046;-70
2022/12/01 09:53:07;;;;;;;135.77;50.58;;;;;;;0.56;99.78;101024.75;10418764;28;19928;-71
2022/12/01 09:58:17;;;;;;;136.30;49.07;;;;;;;0.66;99.88;101021.53;10419603;28;20497;-71
2022/12/01 10:03:44;;;;;;;143.55;50.47;;;;;;;0.57;100.00;101013.56;10420853;28;20044;-71
2022/12/01 10:08:58;;;;;;;132.70;49.30;;;;;;;0.81;98.86;101009.00;10400558;28;20555;-71
2022/12/01 10:14:02;;;;;;;126.07;47.95;;;;;;;0.90;98.31;101001.44;10420366;28;20045;-71
2022/12/01 10:19:23;;;;;;;135.60;48.90;;;;;;;0.82;99.43;101010.72;10420917;28;20049;-72
2022/12/01 10:24:52;;;;;;;140.73;50.95;;;;;;;1.04;96.87;101001.75;10418328;28;20045;-71
2022/12/01 10:30:22;;;;;;;137.77;51.63;;;;;;;0.81;98.47;100998.63;10419327;28;20053;-70
2022/12/01 10:35:34;;;;;;;130.05;48.60;;;;;;;0.98;97.60;100996.44;10421960;28;20052;-71
2022/12/01 10:40:37;;;;;;;125.43;46.10;;;;;;;0.87;98.47;100988.41;10418382;28;20457;-71
2022/12/01 10:45:42;;;;;;;131.45;49.05;;;;;;;1.06;97.40;100988.81;10419448;28;20041;-71
2022/12/01 10:50:55;;;;;;;126.68;47.67;;;;;;;1.06;97.93;100987.09;10417935;28;20117;-70
2022/12/01 10:56:03;;;;;;;119.80;48.55;;;;;;;1.06;97.86;100986.22;10417955;28;20041;-71
2022/12/01 11:01:05;;;;;;;113.70;45.47;;;;;;;0.91;97.09;100992.81;10417628;28;20033;-71
2022/12/01 11:06:09;;;;;;;111.28;45.17;;;;;;;0.95;97.25;100984.28;10418650;28;20069;-71
2022/12/01 11:11:26;;;;;;;113.10;44.88;;;;;;;0.93;96.22;100983.41;10418737;28;20072;-70
2022/12/01 11:16:41;;;;;;;120.78;46.75;;;;;;;0.85;97.63;100984.06;10418600;28;20052;-70
2022/12/01 11:21:47;;;;;;;131.27;49.72;;;;;;;1.01;97.10;100981.81;10418021;28;20522;-71
2022/12/01 11:26:49;;;;;;;114.05;46.28;;;;;;;0.99;96.94;100980.06;10416520;28;20048;-70
2022/12/01 11:31:51;;;;;;;108.82;49.00;;;;;;;0.98;96.73;100968.84;10417630;28;20046;-71
2022/12/01 11:36:57;;;;;;;112.68;45.70;;;;;;;1.11;97.50;100975.16;10417736;28;20125;-71
2022/12/01 11:42:02;;;;;;;99.78;43.78;;;;;;;1.06;95.96;100970.69;10416986;28;20037;-70
2022/12/01 11:47:13;;;;;;;117.97;48.42;;;;;;;0.96;96.63;100967.03;10417850;28;20042;-69
2022/12/01 11:52:30;;;;;;;147.00;55.95;;;;;;;0.99;97.39;100965.41;10417006;28;20049;-71
2022/12/01 11:57:32;;;;;;;130.60;51.63;;;;;;;0.98;97.85;100958.47;10416905;28;20427;-70
2022/12/01 12:03:05;;;;;;;113.88;46.97;;;;;;;1.20;97.26;100944.28;10418917;28;20041;-71
2022/12/01 12:08:33;;;;;;;116.57;49.85;;;;;;;1.14;96.46;100941.53;10417666;28;20034;-71
2022/12/01 12:13:50;;;;;;;114.05;46.40;;;;;;;1.33;95.29;100949.69;10411424;28;20080;-70
2022/12/01 12:19:04;;;;;;;117.45;48.75;;;;;;;1.11;96.72;100948.38;10416961;28;20042;-71
2022/12/01 12:24:34;;;;;;;126.20;49.92;;;;;;;0.87;98.08;100944.41;10416983;28;20476;-71
2022/12/01 12:29:47;;;;;;;121.15;46.80;;;;;;;1.00;97.61;100940.38;10417021;28;20051;-71
2022/12/01 12:35:21;;;;;;;129.80;51.67;;;;;;;0.96;98.51;100938.56;10423411;28;20051;-71
2022/12/01 12:40:22;;;;;;;115.60;49.10;;;;;;;0.91;99.61;100943.63;10424020;28;20048;-71
2022/12/01 12:45:51;;;;;;;110.82;46.50;;;;;;;1.18;96.88;100938.16;10406240;28;20045;-70
2022/12/01 12:51:02;;;;;;;112.85;47.83;;;;;;;1.01;97.41;100948.16;10424570;28;20125;-69
2022/12/01 12:56:08;;;;;;;113.85;46.38;;;;;;;1.21;97.19;100933.06;10423778;28;20045;-70
2022/12/01 13:01:16;;;;;;;120.87;48.73;;;;;;;0.89;98.67;100937.56;10427396;28;20543;-70
2022/12/01 13:06:22;;;;;;;112.13;47.17;;;;;;;1.12;97.63;100934.59;10425547;28;20041;-71
2022/12/01 13:11:31;;;;;;;108.03;46.55;;;;;;;0.83;100.00;100934.81;10426724;28;20042;-72
2022/12/01 13:16:44;;;;;;;117.47;48.17;;;;;;;1.04;99.15;100938.72;10427866;28;20441;-70
2022/12/01 13:21:48;;;;;;;116.38;47.60;;;;;;;0.90;98.54;100933.25;10427253;28;20068;-71
2022/12/01 13:26:56;;;;;;;123.25;50.00;;;;;;;0.90;98.59;100921.19;10427584;28;20471;-71
2022/12/01 13:31:58;;;;;;;114.88;48.75;;;;;;;1.09;97.16;100934.53;10407223;22;20141;-71
2022/12/01 13:37:00;;;;;;;115.22;47.80;;;;;;;0.83;98.81;100936.53;10378993;28;20038;-71
2022/12/01 13:42:06;;;;;;;118.15;48.45;;;;;;;0.85;98.93;100933.16;10379181;28;20129;-71
2022/12/01 13:47:07;;;;;;;107.78;45.20;;;;;;;1.10;97.52;100938.84;10377824;28;20215;-71
2022/12/01 13:52:21;;;;;;;110.55;45.20;;;;;;;0.89;97.25;100940.16;10377677;28;20041;-71
2022/12/01 13:57:26;;;;;;;92.80;43.17;;;;;;;0.95;96.39;100945.47;10393803;28;20042;-71
2022/12/01 14:02:33;;;;;;;117.85;47.47;;;;;;;0.96;97.99;100931.66;10416878;28;20045;-71
2022/12/01 14:07:36;;;;;;;121.28;48.33;;;;;;;0.93;97.27;100930.72;10419082;28;20049;-71
2022/12/01 14:12:40;;;;;;;116.72;48.25;;;;;;;0.90;97.31;100926.38;10418846;28;20072;-71
2022/12/01 14:17:44;;;;;;;114.47;46.78;;;;;;;0.77;97.45;100921.75;10418133;28;20075;-71
2022/12/01 14:23:00;;;;;;;103.55;44.80;;;;;;;0.98;96.31;100921.38;10417227;28;20095;-71
2022/12/01 14:28:08;;;;;;;113.40;48.10;;;;;;;0.69;97.56;100920.72;10417134;28;20096;-71
2022/12/01 14:33:46;;;;;;;108.35;46.88;;;;;;;0.81;97.49;100923.59;10417144;28;20046;-71
2022/12/01 14:38:56;;;;;;;120.20;47.55;;;;;;;0.84;98.05;100928.84;10415536;28;20056;-71
2022/12/01 14:44:46;;;;;;;108.22;46.58;;;;;;;0.69;98.10;100924.16;10416642;28;20518;-72
2022/12/01 14:49:57;;;;;;;114.47;47.33;;;;;;;0.81;98.10;100923.59;10422594;28;20062;-72
2022/12/01 14:55:06;;;;;;;115.57;46.88;;;;;;;0.82;97.98;100907.19;10416106;28;20080;-71
2022/12/01 15:00:21;;;;;;;118.35;49.70;;;;;;;0.70;98.16;100907.78;10415154;28;20049;-71
2022/12/01 15:05:26;;;;;;;108.63;46.78;;;;;;;0.79;97.67;100907.13;10415303;28;20091;-71
2022/12/01 15:10:33;;;;;;;117.32;48.35;;;;;;;0.71;99.06;100906.13;10418335;28;20042;-71
2022/12/01 15:15:36;;;;;;;;;;;;;;;0.80;97.55;100902.81;10416503;28;20046;-71
2022/12/01 15:20:38;;;;;;;124.80;47.92;;;;;;;0.59;98.82;100908.41;10415152;28;19925;-71
2022/12/01 15:25:48;;;;;;;125.95;49.25;;;;;;;0.64;98.76;100907.66;10416475;28;20053;-72
2022/12/01 15:30:52;;;;;;;117.05;49.13;;;;;;;0.66;99.02;100902.53;10416930;28;20045;-72
2022/12/01 15:35:55;;;;;;;137.50;53.00;;;;;;;0.67;98.96;100904.28;10415768;28;20045;-72
2022/12/01 15:41:01;;;;;;;121.43;51.60;;;;;;;0.76;97.93;100909.66;10401380;28;20049;-71
2022/12/01 15:46:33;;;;;;;121.03;49.28;;;;;;;0.69;98.29;100915.53;10415445;28;20063;-72
2022/12/01 15:51:35;;;;;;;117.25;48.42;;;;;;;0.68;97.84;100906.91;10399836;28;20049;-71
2022/12/01 15:56:38;;;;;;;118.22;49.28;;;;;;;0.61;97.52;100917.94;10414343;28;20050;-72
2022/12/01 16:01:42;;;;;;;114.57;49.33;;;;;;;0.62;98.47;100905.88;10414230;28;20042;-71
2022/12/01 16:06:56;;;;;;;122.68;49.10;;;;;;;0.61;97.95;100911.91;10419487;28;20124;-71
2022/12/01 16:12:15;;;;;;;110.82;44.90;;;;;;;0.55;98.07;100919.53;10424272;28;20056;-72
2022/12/01 16:17:17;;;;;;;109.43;45.72;;;;;;;0.79;96.09;100927.81;10423762;28;20053;-72
2022/12/01 16:22:21;;;;;;;109.28;48.30;;;;;;;0.58;97.80;100928.25;10423392;28;20068;-72
2022/12/01 16:27:25;;;;;;;98.53;44.50;;;;;;;0.69;95.84;100925.88;10404963;28;20046;-72
2022/12/01 16:32:37;;;;;;;92.80;42.78;;;;;;;0.63;96.00;100929.22;10422768;28;20041;-72
2022/12/01 16:37:38;;;;;;;102.32;45.70;;;;;;;0.53;95.15;100918.59;10424224;28;20092;-71
2022/12/01 16:42:40;;;;;;;102.68;45.28;;;;;;;0.46;96.51;100921.06;10421985;28;20041;-72
2022/12/01 16:47:43;;;;;;;99.70;43.22;;;;;;;0.53;95.31;100924.66;10421579;28;20037;-71
2022/12/01 16:52:45;;;;;;;89.45;42.17;;;;;;;0.52;95.91;100930.66;10420941;28;20045;-71
2022/12/01 16:57:48;;;;;;;94.20;41.88;;;;;;;0.61;95.07;100930.00;10421967;28;20539;-72
2022/12/01 17:02:51;;;;;;;93.30;43.30;;;;;;;0.48;95.62;100921.97;10420991;28;20380;-71
2022/12/01 17:07:53;;;;;;;95.55;42.10;;;;;;;0.44;95.67;100932.19;10421173;28;20041;-72
2022/12/01 17:12:55;;;;;;;92.47;43.17;;;;;;;0.46;95.25;100927.94;10420602;28;20049;-72
2022/12/01 17:17:57;;;;;;;88.93;41.38;;;;;;;0.62;92.76;100922.31;10424205;28;20132;-72
2022/12/01 17:22:59;;;;;;;94.93;43.25;;;;;;;0.54;93.81;100920.38;10419475;28;20059;-72
2022/12/01 17:28:01;;;;;;;95.50;43.50;;;;;;;0.48;95.12;100923.69;10420948;28;20406;-70
2022/12/01 17:33:03;;;;;;;97.57;44.13;;;;;;;0.66;94.07;100920.63;10422937;28;20463;-72
2022/12/01 17:38:04;;;;;;;94.28;46.28;;;;;;;0.34;94.69;100931.13;10420675;28;20041;-72
2022/12/01 17:43:07;;;;;;;99.85;46.78;;;;;;;0.44;94.53;100929.63;10420028;28;20151;-71
2022/12/01 17:48:09;;;;;;;103.15;45.88;;;;;;;0.29;95.65;100924.97;10418116;28;20069;-71
2022/12/01 17:53:11;;;;;;;91.18;44.42;;;;;;;0.23;96.69;100928.28;10419092;28;20498;-72
2022/12/01 17:58:13;;;;;;;95.60;45.35;;;;;;;0.24;97.26;100934.31;10418533;28;20045;-71
2022/12/01 18:03:15;;;;;;;101.97;46.35;;;;;;;0.51;94.94;100928.94;10420300;28;20049;-72
2022/12/01 18:08:16;;;;;;;97.47;44.95;;;;;;;0.50;94.86;100935.81;10419194;28;20076;-72
2022/12/01 18:13:19;;;;;;;102.35;47.60;;;;;;;0.31;95.84;100927.56;10418433;28;20410;-72
2022/12/01 18:18:22;;;;;;;88.88;43.10;;;;;;;0.56;93.88;100932.50;10417493;28;20037;-72
2022/12/01 18:23:24;;;;;;;98.55;45.17;;;;;;;0.44;95.16;100934.78;10419883;28;20052;-72
2022/12/01 18:28:26;;;;;;;96.68;44.80;;;;;;;0.53;94.64;100934.13;10417406;28;20061;-72
2022/12/01 18:33:27;;;;;;;96.28;44.63;;;;;;;0.65;94.15;100924.94;10418407;28;20058;-72
2022/12/01 18:38:29;;;;;;;100.90;46.67;;;;;;;0.52;94.12;100922.91;10419875;28;20049;-71
2022/12/01 18:43:32;;;;;;;95.10;46.53;;;;;;;0.62;94.26;100916.22;10417602;28;20041;-72
2022/12/01 18:48:34;;;;;;;98.28;44.65;;;;;;;0.70;94.11;100925.91;10418634;28;20049;-72
2022/12/01 18:53:36;;;;;;;97.22;45.42;;;;;;;0.55;94.92;100922.13;10418730;28;20046;-71
2022/12/01 18:58:38;;;;;;;94.57;45.60;;;;;;;0.75;94.73;100913.06;10417728;28;20052;-72
2022/12/01 19:03:40;;;;;;;95.20;45.95;;;;;;;0.57;94.28;100905.78;10416276;28;20045;-72
2022/12/01 19:08:42;;;;;;;93.45;45.15;;;;;;;0.83;93.64;100913.25;10417498;28;20064;-72
2022/12/01 19:13:44;;;;;;;94.63;43.55;;;;;;;0.67;94.08;100907.75;10416144;28;20061;-72
2022/12/01 19:18:46;;;;;;;94.07;43.88;;;;;;;0.61;94.73;100906.72;10415477;28;20045;-71
2022/12/01 19:23:48;;;;;;;91.90;45.60;;;;;;;0.52;95.27;100909.97;10416621;28;20120;-71
2022/12/01 19:28:50;;;;;;;96.72;45.45;;;;;;;0.60;95.78;100907.56;10432704;23;20037;-75
2022/12/01 19:33:52;;;;;;;93.28;43.97;;;;;;;0.69;95.98;100898.28;10391554;28;20079;-76
2022/12/01 19:38:56;;;;;;;87.82;43.88;;;;;;;0.73;94.73;100904.41;10375332;28;20129;-75
2022/12/01 19:43:58;;;;;;;95.20;45.95;;;;;;;0.59;96.53;100904.13;10376495;28;20096;-75
2022/12/01 19:49:00;;;;;;;96.85;46.85;;;;;;;0.56;97.17;100900.56;10375749;28;20049;-75
2022/12/01 19:54:04;;;;;;;89.10;43.97;;;;;;;0.46;98.38;100902.09;10376643;28;20052;-75
2022/12/01 19:59:06;;;;;;;97.05;45.15;;;;;;;0.42;99.12;100897.69;10378014;28;20050;-76
2022/12/01 20:04:09;;;;;;;98.63;45.78;;;;;;;0.30;100.00;100898.25;10378665;28;20550;-75
2022/12/01 20:09:10;;;;;;;96.13;46.17;;;;;;;0.32;100.00;100904.34;10377091;28;20503;-75
2022/12/01 20:14:13;;;;;;;97.38;46.05;;;;;;;0.40;100.00;100900.25;10377891;28;20050;-76
2022/12/01 20:19:14;;;;;;;96.68;45.97;;;;;;;0.43;100.00;100894.25;10376995;28;20038;-74
2022/12/01 20:24:21;;;;;;;95.22;46.13;;;;;;;0.46;99.87;100890.03;10375887;28;20041;-76
2022/12/01 20:29:26;;;;;;;98.70;48.28;;;;;;;0.48;100.00;100898.69;10376087;28;20533;-75
2022/12/01 20:34:33;;;;;;;94.68;48.15;;;;;;;0.53;99.76;100893.59;10376787;28;20042;-75
2022/12/01 20:39:36;;;;;;;94.18;47.78;;;;;;;0.48;100.00;100892.63;10359860;28;20049;-74
2022/12/01 20:44:39;;;;;;;95.47;44.42;;;;;;;0.43;100.00;100883.91;10377753;28;20073;-75
2022/12/01 20:49:41;;;;;;;89.03;43.97;;;;;;;0.55;99.69;100886.78;10377242;28;20091;-76
2022/12/01 20:54:43;;;;;;;97.88;46.95;;;;;;;0.42;100.00;100884.75;10382401;28;20523;-75
2022/12/01 20:59:45;;;;;;;93.95;44.78;;;;;;;0.31;100.00;100868.09;10382530;28;20069;-75
2022/12/01 21:04:47;;;;;;;95.45;46.55;;;;;;;0.38;100.00;100864.81;10384001;28;20060;-75
2022/12/01 21:09:49;;;;;;;97.22;47.33;;;;;;;0.47;100.00;100870.19;10383163;28;20052;-76
2022/12/01 21:15:01;;;;;;;98.07;45.97;;;;;;;0.48;100.00;100870.22;10365590;28;20046;-76
2022/12/01 21:20:20;;;;;;;93.80;45.38;;;;;;;0.41;100.00;100870.94;10382980;28;20454;-76
2022/12/01 21:25:27;;;;;;;94.70;45.22;;;;;;;0.60;100.00;100873.94;10381510;28;20514;-75
2022/12/01 21:30:29;;;;;;;96.32;46.55;;;;;;;0.56;100.00;100866.94;10380890;28;20491;-75
2022/12/01 21:35:31;;;;;;;93.15;46.58;;;;;;;0.41;100.00;100872.66;10381521;28;20053;-76
2022/12/01 21:40:33;;;;;;;97.15;46.10;;;;;;;0.41;100.00;100870.94;10381100;28;20415;-75
2022/12/01 21:45:35;;;;;;;90.18;46.50;;;;;;;0.46;100.00;100871.91;10380412;28;20046;-74
2022/12/01 21:50:36;;;;;;;93.82;46.30;;;;;;;0.40;100.00;100873.47;10381241;28;20046;-74
2022/12/01 21:55:40;;;;;;;90.40;44.63;;;;;;;0.35;100.00;100862.16;10381642;28;20560;-76
2022/12/01 22:00:44;;;;;;;96.40;46.08;;;;;;;0.29;100.00;100855.13;10379713;28;20053;-75
2022/12/01 22:05:51;;;;;;;96.53;46.78;;;;;;;0.50;100.00;100847.88;10378303;28;20487;-75
2022/12/01 22:11:24;;;;;;;93.25;46.78;;;;;;;0.57;100.00;100854.03;10380342;28;20058;-76
2022/12/01 22:16:31;;;;;;;94.35;47.65;;;;;;;0.54;100.00;100863.47;10378978;28;20050;-76
2022/12/01 22:21:35;;;;;;;;;;;;;;;0.44;100.00;100854.59;10380416;28;20088;-74
2022/12/01 22:26:43;;;;;;;92.47;44.70;;;;;;;0.63;100.00;100854.19;10380757;28;19921;-75
2022/12/01 22:31:46;;;;;;;89.85;44.83;;;;;;;0.81;100.00;100852.84;10379430;28;20103;-74
2022/12/01 22:36:50;;;;;;;93.18;45.78;;;;;;;0.53;100.00;100852.22;10380650;28;20049;-75
2022/12/01 22:41:58;;;;;;;98.30;47.13;;;;;;;0.57;100.00;100848.84;10379570;28;20046;-75
2022/12/01 22:47:01;;;;;;;92.85;44.70;;;;;;;0.72;100.00;100849.19;10379616;28;20046;-74
2022/12/01 22:52:17;;;;;;;95.50;46.80;;;;;;;0.50;100.00;100853.03;10378500;28;20048;-75
2022/12/01 22:57:35;;;;;;;98.73;47.63;;;;;;;0.49;100.00;100837.50;10379085;28;20396;-75
2022/12/01 23:02:37;;;;;;;93.78;45.45;;;;;;;0.67;100.00;100837.03;10378346;28;20084;-75